Time;durP1;ratioP1;P1;durP2;ratioP2;P2;SDS_P1;SDS_P2;PMS_P1;PMS_P2;Temp;Humidity;BMP_temperature;BMP_pressure;BME280_temperature;BME280_humidity;BME280_pressure;Samples;Min_cycle;Max_cycle;Signal;HPM_P1;HPM_P2
2022/10/29 00:01:47;;;;;;;11.73;3.90;;;;;;;13.18;100.00;97027.50;5029609;28;20525;-76
2022/10/29 00:04:13;;;;;;;15.17;5.27;;;;;;;13.24;100.00;97021.59;5029462;28;20112;-76
2022/10/29 00:06:39;;;;;;;13.33;4.10;;;;;;;13.17;100.00;97020.53;5029297;28;20083;-76
2022/10/29 00:09:05;;;;;;;11.67;5.30;;;;;;;13.16;100.00;97021.53;5028737;28;20038;-76
2022/10/29 00:11:30;;;;;;;14.93;4.83;;;;;;;13.10;100.00;97015.06;5029166;28;20032;-76
2022/10/29 00:13:58;;;;;;;13.93;4.50;;;;;;;13.09;100.00;97021.34;5018426;28;20053;-77
2022/10/29 00:16:27;;;;;;;18.03;4.87;;;;;;;13.12;100.00;97020.19;5030135;28;20084;-76
2022/10/29 00:18:56;;;;;;;17.13;5.40;;;;;;;13.16;100.00;97024.19;5028744;28;20037;-76
2022/10/29 00:21:24;;;;;;;9.30;3.87;;;;;;;13.11;100.00;97023.81;5030124;28;20029;-76
2022/10/29 00:23:51;;;;;;;13.73;4.70;;;;;;;13.10;100.00;97030.09;5012464;28;20069;-77
2022/10/29 00:26:19;;;;;;;18.00;4.67;;;;;;;13.11;100.00;97018.53;5029964;28;20033;-76
2022/10/29 00:28:44;;;;;;;11.47;4.97;;;;;;;13.08;100.00;97019.69;5028576;28;20056;-76
2022/10/29 00:31:13;;;;;;;12.63;5.23;;;;;;;12.87;100.00;97024.47;5030247;28;20394;-76
2022/10/29 00:33:39;;;;;;;9.70;4.00;;;;;;;12.90;100.00;97024.16;5029520;28;20029;-76
2022/10/29 00:36:10;;;;;;;14.33;4.10;;;;;;;12.90;100.00;97018.88;5028584;28;20088;-76
2022/10/29 00:38:37;;;;;;;12.23;4.90;;;;;;;12.83;100.00;97028.41;5028491;28;20033;-77
2022/10/29 00:41:04;;;;;;;13.77;4.83;;;;;;;12.83;100.00;97026.59;5028712;28;20044;-77
2022/10/29 00:43:36;;;;;;;13.67;4.47;;;;;;;12.75;100.00;97021.25;5029940;28;20037;-77
2022/10/29 00:46:24;;;;;;;14.17;4.67;;;;;;;12.82;100.00;97017.03;5021018;28;20033;-76
2022/10/29 00:48:53;;;;;;;10.67;4.60;;;;;;;12.83;100.00;97005.47;5012204;28;20148;-76
2022/10/29 00:51:19;;;;;;;15.90;4.80;;;;;;;12.76;100.00;97004.44;5029927;28;20122;-76
2022/10/29 00:53:55;;;;;;;13.53;4.23;;;;;;;12.76;100.00;96996.53;5020818;28;20033;-76
2022/10/29 00:56:24;;;;;;;11.53;3.97;;;;;;;12.76;100.00;97003.63;5009752;28;20038;-76
2022/10/29 00:58:50;;;;;;;15.50;4.67;;;;;;;12.85;100.00;97006.16;5038930;28;20038;-78
2022/10/29 01:01:16;;;;;;;13.03;4.30;;;;;;;12.93;100.00;97003.56;5041428;28;20032;-75
2022/10/29 01:03:42;;;;;;;12.70;4.63;;;;;;;12.90;100.00;97001.22;5024434;28;20059;-76
2022/10/29 01:06:08;;;;;;;14.10;4.60;;;;;;;12.98;100.00;97001.31;5029563;28;20036;-76
2022/10/29 01:08:33;;;;;;;10.30;4.60;;;;;;;12.98;100.00;96998.66;5029284;28;20527;-76
2022/10/29 01:11:02;;;;;;;15.70;4.27;;;;;;;12.88;100.00;96991.84;5028527;28;20041;-76
2022/10/29 01:13:58;;;;;;;14.90;4.23;;;;;;;12.85;100.00;96992.97;5028362;28;20029;-76
2022/10/29 01:16:35;;;;;;;12.30;4.17;;;;;;;12.93;100.00;96993.00;5029430;28;20033;-76
2022/10/29 01:19:01;;;;;;;13.40;3.83;;;;;;;13.08;100.00;96987.19;5011635;28;20036;-77
2022/10/29 01:21:38;;;;;;;10.67;3.90;;;;;;;13.10;100.00;96987.81;5044691;28;20041;-76
2022/10/29 01:24:34;;;;;;;11.53;3.83;;;;;;;13.09;100.00;96979.09;5029406;28;20034;-76
2022/10/29 01:27:19;;;;;;;13.33;3.30;;;;;;;13.04;100.00;96980.53;5011859;28;20061;-76
2022/10/29 01:30:00;;;;;;;10.83;4.23;;;;;;;12.97;100.00;96989.06;5028763;28;20049;-76
2022/10/29 01:32:37;;;;;;;13.80;3.87;;;;;;;12.92;100.00;96990.53;5024504;28;20044;-76
2022/10/29 01:35:17;;;;;;;14.83;3.87;;;;;;;12.89;100.00;96978.47;5027826;28;20383;-76
2022/10/29 01:37:50;;;;;;;10.53;3.40;;;;;;;12.81;100.00;96972.28;5027745;28;20037;-76
2022/10/29 01:40:22;;;;;;;9.23;3.60;;;;;;;12.76;100.00;96956.94;5028401;28;20463;-76
2022/10/29 01:42:56;;;;;;;12.47;3.83;;;;;;;12.74;100.00;96961.53;5029453;28;20033;-76
2022/10/29 01:45:32;;;;;;;15.43;3.93;;;;;;;12.71;100.00;96964.50;5029072;28;20049;-78
2022/10/29 01:48:07;;;;;;;13.17;4.80;;;;;;;12.65;100.00;96968.56;5029227;28;20030;-76
2022/10/29 01:50:37;;;;;;;13.67;3.70;;;;;;;12.74;100.00;96964.16;5028270;28;20490;-75
2022/10/29 01:53:04;;;;;;;10.80;3.90;;;;;;;12.67;100.00;96961.31;5028063;28;20034;-76
2022/10/29 01:55:35;;;;;;;9.70;3.97;;;;;;;12.73;100.00;96954.59;5043090;28;20072;-75
2022/10/29 01:58:05;;;;;;;14.13;3.70;;;;;;;12.70;100.00;96958.38;5028859;28;20026;-76
2022/10/29 02:00:42;;;;;;;10.37;4.17;;;;;;;12.77;100.00;96961.22;5029486;28;20039;-76
2022/10/29 02:03:26;;;;;;;14.70;4.03;;;;;;;12.75;100.00;96960.56;5028723;28;20495;-75
2022/10/29 02:06:29;;;;;;;16.93;3.80;;;;;;;12.82;100.00;96958.13;4992923;28;20119;-76
2022/10/29 02:08:58;;;;;;;14.50;3.83;;;;;;;12.75;100.00;96957.94;5009952;28;20480;-76
2022/10/29 02:11:38;;;;;;;10.70;3.63;;;;;;;12.66;100.00;96957.03;5013682;28;20057;-77
2022/10/29 02:14:14;;;;;;;12.70;4.27;;;;;;;12.66;100.00;96950.94;5013995;28;20041;-76
2022/10/29 02:16:41;;;;;;;14.57;4.00;;;;;;;12.66;100.00;96954.38;5012238;28;20057;-76
2022/10/29 02:19:06;;;;;;;11.47;3.50;;;;;;;12.63;100.00;96948.59;5033363;28;20084;-76
2022/10/29 02:21:32;;;;;;;10.87;3.87;;;;;;;12.55;100.00;96940.63;5020987;28;20045;-76
2022/10/29 02:23:58;;;;;;;18.37;4.60;;;;;;;12.49;100.00;96942.88;5032706;28;20025;-75
2022/10/29 02:26:23;;;;;;;15.17;4.20;;;;;;;12.49;100.00;96942.88;5033348;28;20099;-76
2022/10/29 02:28:49;;;;;;;15.90;4.10;;;;;;;12.49;100.00;96940.25;5031848;28;20095;-76
2022/10/29 02:31:15;;;;;;;14.67;4.40;;;;;;;12.50;100.00;96943.72;4996476;28;20061;-76
2022/10/29 02:33:40;;;;;;;12.07;4.60;;;;;;;12.43;100.00;96943.50;5026845;28;20706;-76
2022/10/29 02:36:07;;;;;;;14.13;4.33;;;;;;;12.36;100.00;96947.72;5033146;28;20470;-76
2022/10/29 02:38:32;;;;;;;14.73;4.10;;;;;;;12.33;100.00;96944.56;5032859;28;20034;-75
2022/10/29 02:40:58;;;;;;;11.10;3.93;;;;;;;12.34;100.00;96939.16;5032871;28;20110;-75
2022/10/29 02:43:24;;;;;;;9.80;3.90;;;;;;;12.32;100.00;96940.28;5029107;28;20037;-76
2022/10/29 02:45:49;;;;;;;14.87;4.37;;;;;;;12.36;100.00;96942.47;5032187;28;20030;-76
2022/10/29 02:48:15;;;;;;;16.97;4.70;;;;;;;12.27;100.00;96943.38;5032469;28;20041;-75
2022/10/29 02:50:41;;;;;;;13.73;4.33;;;;;;;12.25;100.00;96943.53;5033138;28;20449;-76
2022/10/29 02:53:06;;;;;;;11.73;3.60;;;;;;;12.24;100.00;96938.44;5032781;28;20036;-76
2022/10/29 02:55:32;;;;;;;11.53;4.40;;;;;;;12.21;100.00;96939.56;5031046;28;20049;-76
2022/10/29 02:57:58;;;;;;;14.63;3.97;;;;;;;12.20;100.00;96937.06;5031049;28;20040;-76
2022/10/29 03:00:23;;;;;;;12.37;4.23;;;;;;;12.11;100.00;96932.72;5031425;28;20049;-76
2022/10/29 03:02:51;;;;;;;18.83;4.67;;;;;;;12.06;100.00;96927.88;5032254;28;20033;-76
2022/10/29 03:05:17;;;;;;;11.53;4.20;;;;;;;12.01;100.00;96927.50;5030798;28;20498;-76
2022/10/29 03:07:43;;;;;;;8.87;3.47;;;;;;;11.91;100.00;96924.94;5030427;28;20039;-76
2022/10/29 03:10:09;;;;;;;9.07;4.07;;;;;;;11.92;100.00;96928.41;5043639;28;20494;-76
2022/10/29 03:12:34;;;;;;;10.30;4.97;;;;;;;11.95;100.00;96928.94;5030672;28;20437;-77
2022/10/29 03:15:00;;;;;;;12.97;3.70;;;;;;;11.93;100.00;96917.69;5031757;28;20099;-76
2022/10/29 03:17:26;;;;;;;12.60;3.80;;;;;;;11.86;100.00;96924.56;5031440;28;20049;-76
2022/10/29 03:19:51;;;;;;;9.27;3.50;;;;;;;11.85;100.00;96917.63;5030453;28;20042;-76
2022/10/29 03:22:17;;;;;;;16.43;4.37;;;;;;;11.80;100.00;96927.75;5029798;28;20029;-76
2022/10/29 03:24:43;;;;;;;10.90;3.80;;;;;;;11.76;100.00;96915.88;5026228;28;20041;-76
2022/10/29 03:27:09;;;;;;;13.20;4.23;;;;;;;11.77;100.00;96925.44;5031384;28;20045;-76
2022/10/29 03:29:34;;;;;;;12.80;4.40;;;;;;;11.79;100.00;96920.84;5011394;28;20034;-76
2022/10/29 03:32:00;;;;;;;10.97;3.33;;;;;;;11.84;100.00;96921.25;5014409;28;20092;-77
2022/10/29 03:34:26;;;;;;;14.63;4.40;;;;;;;11.77;100.00;96925.44;5031335;28;20477;-76
2022/10/29 03:36:51;;;;;;;16.97;5.17;;;;;;;11.72;100.00;96931.16;5030419;28;20070;-76
2022/10/29 03:39:17;;;;;;;11.17;3.87;;;;;;;11.69;100.00;96931.44;5013929;28;20034;-77
2022/10/29 03:41:42;;;;;;;14.33;4.60;;;;;;;11.71;100.00;96939.22;5013551;28;20029;-76
2022/10/29 03:44:08;;;;;;;11.67;3.67;;;;;;;11.73;100.00;96935.44;5031884;28;20036;-77
2022/10/29 03:46:34;;;;;;;10.27;3.80;;;;;;;11.74;100.00;96931.00;5030896;28;20680;-76
2022/10/29 03:48:59;;;;;;;10.97;4.00;;;;;;;11.71;100.00;96929.50;5031297;28;20029;-76
2022/10/29 03:51:25;;;;;;;12.53;4.50;;;;;;;11.72;100.00;96932.97;5030170;28;20494;-76
2022/10/29 03:53:50;;;;;;;13.97;4.20;;;;;;;11.76;100.00;96937.78;5031691;28;20490;-76
2022/10/29 03:56:16;;;;;;;15.37;5.17;;;;;;;11.81;100.00;96947.88;5031162;28;20033;-76
2022/10/29 03:58:42;;;;;;;13.57;4.17;;;;;;;11.80;100.00;96944.41;5030631;28;20021;-76
2022/10/29 04:01:09;;;;;;;17.43;4.37;;;;;;;11.86;100.00;96940.38;5031118;28;20553;-76
2022/10/29 04:03:36;;;;;;;12.37;4.90;;;;;;;11.94;100.00;96934.38;5030094;28;20038;-76
2022/10/29 04:06:09;;;;;;;16.10;4.03;;;;;;;11.98;100.00;96931.28;5030550;28;20034;-76
2022/10/29 04:08:35;;;;;;;26.35;9.77;;;;;;;12.07;100.00;96936.59;5012585;28;20133;-77
2022/10/29 04:11:00;;;;;;;13.83;4.93;;;;;;;12.08;100.00;96940.91;5011464;28;20077;-77
2022/10/29 04:13:26;;;;;;;15.77;4.83;;;;;;;12.06;100.00;96946.31;5028317;28;20056;-76
2022/10/29 04:15:55;;;;;;;10.07;3.90;;;;;;;12.09;100.00;96942.56;5029107;28;20079;-77
2022/10/29 04:18:22;;;;;;;12.47;3.87;;;;;;;12.08;100.00;96943.56;5030319;28;20026;-76
2022/10/29 04:20:48;;;;;;;14.03;5.37;;;;;;;12.05;100.00;96944.69;5026271;28;20056;-77
2022/10/29 04:23:13;;;;;;;12.73;4.10;;;;;;;12.10;100.00;96949.50;5010590;28;20483;-76
2022/10/29 04:25:39;;;;;;;15.40;4.07;;;;;;;12.16;100.00;96940.97;5038373;28;20486;-76
2022/10/29 04:28:05;;;;;;;15.13;4.00;;;;;;;12.29;100.00;96930.88;5030061;28;20037;-76
2022/10/29 04:30:30;;;;;;;10.03;3.80;;;;;;;12.32;100.00;96935.84;5030062;28;20033;-76
2022/10/29 04:32:58;;;;;;;17.57;4.90;;;;;;;12.38;100.00;96927.31;5028174;28;20033;-77
2022/10/29 04:35:27;;;;;;;14.43;3.97;;;;;;;12.30;100.00;96934.31;5030310;28;20037;-76
2022/10/29 04:37:56;;;;;;;16.07;4.43;;;;;;;12.14;100.00;96935.00;5012090;28;20041;-77
2022/10/29 04:40:23;;;;;;;12.27;3.90;;;;;;;12.14;100.00;96937.66;5028935;28;20384;-76
2022/10/29 04:42:48;;;;;;;10.13;3.90;;;;;;;12.11;100.00;96941.44;5029002;28;20030;-76
2022/10/29 04:45:14;;;;;;;21.20;4.63;;;;;;;12.07;100.00;96942.69;5028569;28;20033;-76
2022/10/29 04:47:40;;;;;;;11.67;3.87;;;;;;;11.95;100.00;96938.66;5012067;28;20033;-77
2022/10/29 04:50:06;;;;;;;18.33;5.57;;;;;;;11.88;100.00;96943.69;5030058;28;20061;-76
2022/10/29 04:52:31;;;;;;;12.73;4.03;;;;;;;11.90;100.00;96940.91;5028692;28;20033;-76
2022/10/29 04:54:57;;;;;;;13.77;4.37;;;;;;;11.98;100.00;96933.91;5029670;28;20433;-76
2022/10/29 04:57:22;;;;;;;10.33;3.60;;;;;;;11.98;100.00;96938.34;5029227;28;20041;-76
2022/10/29 04:59:48;;;;;;;12.47;3.80;;;;;;;12.04;100.00;96943.03;5028696;28;20080;-77
2022/10/29 05:02:14;;;;;;;21.03;4.43;;;;;;;12.11;100.00;96944.06;5028180;28;20543;-76
2022/10/29 05:04:39;;;;;;;15.23;4.20;;;;;;;12.02;100.00;96943.16;5012004;28;20029;-76
2022/10/29 05:07:05;;;;;;;8.90;4.27;;;;;;;12.02;100.00;96943.16;5029626;28;20037;-76
2022/10/29 05:09:31;;;;;;;13.23;4.47;;;;;;;12.00;100.00;96933.75;5038996;28;20044;-76
2022/10/29 05:11:56;;;;;;;11.50;3.97;;;;;;;12.05;100.00;96938.59;5049538;28;20037;-76
2022/10/29 05:14:22;;;;;;;16.13;4.60;;;;;;;12.10;100.00;96937.13;5048416;28;20037;-76
2022/10/29 05:16:47;;;;;;;16.70;4.10;;;;;;;12.12;100.00;96937.81;5030760;28;20504;-76
2022/10/29 05:19:13;;;;;;;12.07;4.60;;;;;;;12.15;100.00;96939.31;5029464;28;20022;-76
2022/10/29 05:21:39;;;;;;;13.57;4.07;;;;;;;12.12;100.00;96939.63;5029403;28;20029;-76
2022/10/29 05:24:04;;;;;;;15.00;4.37;;;;;;;12.18;100.00;96939.03;5015696;28;20038;-76
2022/10/29 05:26:33;;;;;;;12.83;4.30;;;;;;;12.25;100.00;96926.88;5026111;28;20040;-77
2022/10/29 05:28:59;;;;;;;15.97;4.63;;;;;;;12.32;100.00;96927.09;5008628;28;20022;-76
2022/10/29 05:31:25;;;;;;;13.90;4.30;;;;;;;12.32;100.00;96925.28;5024844;28;20048;-76
2022/10/29 05:33:50;;;;;;;26.83;4.77;;;;;;;12.36;100.00;96931.91;5027125;28;20029;-76
2022/10/29 05:36:17;;;;;;;12.93;3.83;;;;;;;12.40;100.00;96921.88;5044909;28;20030;-76
2022/10/29 05:38:42;;;;;;;14.33;4.07;;;;;;;12.40;100.00;96927.97;5016822;28;20403;-76
2022/10/29 05:41:08;;;;;;;9.57;4.13;;;;;;;12.41;100.00;96918.28;5010282;28;20036;-76
2022/10/29 05:43:34;;;;;;;16.07;4.97;;;;;;;12.45;100.00;96919.63;5010064;28;20037;-78
2022/10/29 05:46:03;;;;;;;17.03;4.97;;;;;;;12.47;100.00;96926.41;5013120;28;20480;-76
2022/10/29 05:48:29;;;;;;;18.80;4.57;;;;;;;12.44;100.00;96924.06;5012916;28;20411;-76
2022/10/29 05:50:56;;;;;;;11.53;3.60;;;;;;;12.36;100.00;96926.63;5012949;28;20042;-76
2022/10/29 05:53:21;;;;;;;13.23;4.30;;;;;;;12.36;100.00;96931.09;5028890;28;20030;-77
2022/10/29 05:55:47;;;;;;;10.43;4.33;;;;;;;12.35;100.00;96932.06;5012342;28;20045;-77
2022/10/29 05:58:13;;;;;;;11.40;4.30;;;;;;;12.28;100.00;96934.50;5013177;28;20037;-76
2022/10/29 06:00:41;;;;;;;15.43;4.53;;;;;;;12.31;100.00;96934.19;5026195;28;20037;-76
2022/10/29 06:03:16;;;;;;;11.30;4.57;;;;;;;12.32;100.00;96935.84;5023552;28;20033;-76
2022/10/29 06:05:42;;;;;;;11.03;4.53;;;;;;;12.36;100.00;96939.81;5033193;28;20042;-76
2022/10/29 06:08:08;;;;;;;17.13;4.33;;;;;;;12.29;100.00;96930.88;5031532;28;20026;-76
2022/10/29 06:10:33;;;;;;;16.90;4.60;;;;;;;12.27;100.00;96943.38;5031588;28;20037;-76
2022/10/29 06:12:59;;;;;;;19.93;4.63;;;;;;;12.25;100.00;96934.81;5031693;28;20025;-76
2022/10/29 06:15:25;;;;;;;12.17;4.23;;;;;;;12.25;100.00;96938.25;5031374;28;20033;-76
2022/10/29 06:17:50;;;;;;;17.40;5.63;;;;;;;12.19;100.00;96941.50;5032569;28;20036;-76
2022/10/29 06:20:19;;;;;;;12.23;4.20;;;;;;;12.18;100.00;96939.84;5032616;28;20091;-77
2022/10/29 06:22:45;;;;;;;18.07;5.07;;;;;;;12.25;100.00;96932.16;5031197;28;20041;-77
2022/10/29 06:25:11;;;;;;;14.03;4.47;;;;;;;12.20;100.00;96935.22;5029911;28;20033;-77
2022/10/29 06:27:36;;;;;;;13.97;3.80;;;;;;;12.28;100.00;96942.41;5028794;28;20059;-77
2022/10/29 06:30:04;;;;;;;14.90;4.97;;;;;;;12.26;100.00;96944.34;5029374;28;20440;-77
2022/10/29 06:32:29;;;;;;;14.33;4.97;;;;;;;12.31;100.00;96936.84;5028790;28;20618;-77
2022/10/29 06:34:55;;;;;;;11.93;5.30;;;;;;;12.33;100.00;96937.50;5025362;28;20134;-77
2022/10/29 06:37:21;;;;;;;16.87;3.90;;;;;;;12.22;100.00;96937.75;5028186;28;20656;-77
2022/10/29 06:39:46;;;;;;;18.93;5.20;;;;;;;12.31;100.00;96934.19;5029261;28;20430;-77
2022/10/29 06:42:12;;;;;;;11.90;4.60;;;;;;;12.28;100.00;96939.78;5027819;28;20045;-77
2022/10/29 06:44:38;;;;;;;14.43;4.20;;;;;;;12.25;100.00;96929.53;5016881;28;20391;-77
2022/10/29 06:47:04;;;;;;;12.83;5.23;;;;;;;12.33;100.00;96926.94;5028838;28;20482;-77
2022/10/29 06:49:30;;;;;;;14.47;4.50;;;;;;;12.37;100.00;96940.66;5028609;28;20108;-77
2022/10/29 06:51:55;;;;;;;14.70;4.40;;;;;;;12.45;100.00;96931.00;5015845;28;20570;-77
2022/10/29 06:54:21;;;;;;;14.47;4.83;;;;;;;12.49;100.00;96927.06;5024949;28;20061;-76
2022/10/29 06:56:47;;;;;;;13.10;4.00;;;;;;;12.59;100.00;96931.41;5010654;28;20044;-76
2022/10/29 06:59:12;;;;;;;17.20;6.27;;;;;;;12.64;100.00;96919.44;5010646;28;20541;-76
2022/10/29 07:01:38;;;;;;;13.57;5.17;;;;;;;12.72;100.00;96924.75;5010900;28;20033;-76
2022/10/29 07:04:04;;;;;;;13.93;4.43;;;;;;;12.90;100.00;96916.75;5039272;28;20044;-76
2022/10/29 07:06:33;;;;;;;14.77;4.20;;;;;;;13.02;100.00;96921.78;5048726;28;20045;-76
2022/10/29 07:08:58;;;;;;;13.47;4.40;;;;;;;13.12;100.00;96917.22;5024960;28;20029;-76
2022/10/29 07:11:24;;;;;;;13.70;4.23;;;;;;;13.28;100.00;96916.47;5028255;28;20053;-76
2022/10/29 07:13:50;;;;;;;12.73;4.33;;;;;;;13.56;100.00;96914.44;4996193;28;20041;-76
2022/10/29 07:16:15;;;;;;;13.13;4.33;;;;;;;13.68;100.00;96913.97;5026961;28;20029;-76
2022/10/29 07:18:41;;;;;;;12.87;4.80;;;;;;;13.82;100.00;96917.78;5030353;28;20014;-76
2022/10/29 07:21:08;;;;;;;16.77;4.43;;;;;;;14.13;100.00;96909.22;5030349;28;20060;-76
2022/10/29 07:23:34;;;;;;;16.47;4.73;;;;;;;14.12;100.00;96918.16;5030700;28;20037;-76
2022/10/29 07:25:59;;;;;;;14.63;4.33;;;;;;;14.13;100.00;96920.63;5019294;28;20030;-76
2022/10/29 07:28:25;;;;;;;12.63;4.53;;;;;;;14.14;100.00;96919.63;5023652;28;20037;-76
2022/10/29 07:30:52;;;;;;;14.97;4.70;;;;;;;14.45;100.00;96915.50;5012515;28;20041;-77
2022/10/29 07:33:18;;;;;;;16.13;4.70;;;;;;;14.77;100.00;96914.66;5028464;28;20032;-76
2022/10/29 07:35:45;;;;;;;16.43;5.03;;;;;;;15.24;100.00;96901.44;5029866;28;20029;-77
2022/10/29 07:38:11;;;;;;;17.20;5.13;;;;;;;15.37;100.00;96906.19;4988319;28;1219291;-76
2022/10/29 07:40:39;;;;;;;14.37;4.57;;;;;;;15.57;100.00;96901.28;5012930;28;20033;-76
2022/10/29 07:43:05;;;;;;;15.57;5.22;;;;;;;15.78;100.00;96900.69;5031045;28;20033;-76
2022/10/29 07:45:31;;;;;;;10.90;4.50;;;;;;;16.19;100.00;96895.91;5030600;28;20040;-77
2022/10/29 07:48:02;;;;;;;26.83;9.15;;;;;;;16.14;100.00;96908.91;5030443;28;20038;-76
2022/10/29 07:50:29;;;;;;;14.48;4.85;;;;;;;16.18;100.00;96901.41;5031181;28;20029;-76
2022/10/29 07:52:55;;;;;;;14.55;3.90;;;;;;;16.75;100.00;96894.78;5026187;28;20041;-76
2022/10/29 07:55:20;;;;;;;9.77;4.50;;;;;;;16.94;100.00;96891.59;5009485;28;20038;-76
2022/10/29 07:57:46;;;;;;;15.57;3.75;;;;;;;17.09;100.00;96894.25;5028447;28;20040;-77
2022/10/29 08:00:13;;;;;;;13.52;3.80;;;;;;;16.65;100.00;96900.34;5030748;28;20044;-77
2022/10/29 08:02:41;;;;;;;15.82;4.72;;;;;;;16.98;100.00;96895.53;5026283;28;20491;-77
2022/10/29 08:05:07;;;;;;;14.50;3.45;;;;;;;17.50;100.00;96896.41;5009311;28;20415;-77
2022/10/29 08:07:33;;;;;;;11.25;3.63;;;;;;;17.58;100.00;96902.44;5011466;28;20036;-77
2022/10/29 08:09:58;;;;;;;14.90;4.95;;;;;;;17.95;100.00;96897.16;5028557;28;20025;-77
2022/10/29 08:12:24;;;;;;;14.00;3.88;;;;;;;17.91;100.00;96896.72;5012351;28;20029;-76
2022/10/29 08:14:50;;;;;;;15.57;3.42;;;;;;;18.13;100.00;96898.34;5017190;28;20523;-77
2022/10/29 08:17:15;;;;;;;11.07;3.35;;;;;;;18.40;100.00;96903.09;5028085;28;20402;-77
2022/10/29 08:19:41;;;;;;;12.00;3.53;;;;;;;19.13;100.00;96892.97;5029592;28;20390;-77
2022/10/29 08:22:07;;;;;;;12.95;3.72;;;;;;;18.94;100.00;96892.66;5028804;28;20033;-76
2022/10/29 08:24:32;;;;;;;8.07;3.50;;;;;;;19.35;100.00;96894.53;5029318;28;20033;-77
2022/10/29 08:26:58;;;;;;;13.48;4.82;;;;;;;19.13;100.00;96895.63;5030145;28;20041;-77
2022/10/29 08:29:24;;;;;;;13.63;4.03;;;;;;;18.81;100.00;96897.88;5028998;28;20108;-76
2022/10/29 08:31:49;;;;;;;8.73;3.70;;;;;;;18.94;100.00;96897.16;5029277;28;20041;-77
2022/10/29 08:34:15;;;;;;;12.85;4.28;;;;;;;19.19;100.00;96894.84;5030140;28;20081;-76
2022/10/29 08:36:40;;;;;;;10.48;3.45;;;;;;;20.11;100.00;96886.34;5029089;28;20398;-77
2022/10/29 08:39:07;;;;;;;15.38;4.13;;;;;;;19.86;100.00;96894.13;5029884;28;20573;-77
2022/10/29 08:41:45;;;;;;;15.77;4.15;;;;;;;20.13;100.00;96892.31;5028675;28;20064;-77
2022/10/29 08:44:40;;;;;;;9.77;3.30;;;;;;;20.08;100.00;96893.94;5029033;28;20164;-77
2022/10/29 08:47:15;;;;;;;11.95;4.95;;;;;;;20.23;100.00;96897.28;5029642;28;20049;-76
2022/10/29 08:49:45;;;;;;;11.18;3.72;;;;;;;20.79;100.00;96894.22;5028527;28;20038;-77
2022/10/29 08:52:19;;;;;;;12.18;3.70;;;;;;;21.03;100.00;96894.59;5029841;28;20033;-77
2022/10/29 08:54:50;;;;;;;11.95;4.15;;;;;;;21.13;100.00;96903.00;5029695;28;20040;-77
2022/10/29 08:57:20;;;;;;;13.18;4.18;;;;;;;21.04;100.00;96898.91;5024185;28;20413;-77
2022/10/29 09:00:02;;;;;;;11.60;3.42;;;;;;;21.81;100.00;96902.56;5025544;28;20075;-77
2022/10/29 09:02:29;;;;;;;12.25;3.30;;;;;;;22.02;100.00;96896.88;5001167;28;20393;-77
2022/10/29 09:04:55;;;;;;;11.05;3.63;;;;;;;22.88;100.00;96897.31;5049578;28;20029;-76
2022/10/29 09:07:41;;;;;;;11.35;3.72;;;;;;;22.75;100.00;96895.56;5032981;28;20108;-77
2022/10/29 09:10:25;;;;;;;9.55;3.13;;;;;;;23.07;100.00;96896.28;5028361;28;20056;-76
2022/10/29 09:13:52;;;;;;;10.77;3.38;;;;;;;23.96;100.00;96889.47;5023907;28;20076;-77
2022/10/29 09:16:56;;;;;;;14.30;3.63;;;;;;;23.82;100.00;96900.63;4989183;28;20037;-76
2022/10/29 09:19:48;;;;;;;9.23;3.40;;;;;;;23.79;100.00;96888.47;4999680;28;20123;-77
2022/10/29 09:22:27;;;;;;;12.30;4.10;;;;;;;23.49;100.00;96896.47;5039876;28;20234;-76
2022/10/29 09:25:25;;;;;;;10.52;3.55;;;;;;;24.19;100.00;96888.72;5048944;28;20033;-77
2022/10/29 09:28:10;;;;;;;12.98;4.20;;;;;;;25.03;97.93;96880.53;5044708;28;20104;-77
2022/10/29 09:30:46;;;;;;;10.93;3.85;;;;;;;25.46;93.89;96878.53;5048647;28;20159;-77
2022/10/29 09:33:17;;;;;;;12.45;3.72;;;;;;;25.08;97.99;96882.53;5033190;28;20033;-77
2022/10/29 09:35:46;;;;;;;11.05;3.30;;;;;;;25.12;96.93;96881.88;5025998;28;20037;-78
2022/10/29 09:38:19;;;;;;;10.48;3.38;;;;;;;25.63;94.39;96879.41;5009197;28;20030;-78
2022/10/29 09:40:45;;;;;;;;;;;;;;;25.22;100.00;96883.13;5009774;28;20518;-78
2022/10/29 09:43:49;;;;;;;11.68;3.50;;;;;;;25.37;97.09;96873.50;5028570;28;19952;-78
2022/10/29 09:46:29;;;;;;;12.15;4.43;;;;;;;24.53;100.00;96874.81;5027609;28;20048;-77
2022/10/29 09:49:12;;;;;;;16.80;4.22;;;;;;;24.28;100.00;96883.00;5026871;28;20036;-77
2022/10/29 09:52:02;;;;;;;11.15;3.95;;;;;;;24.16;100.00;96873.06;5026835;28;20574;-77
2022/10/29 09:54:30;;;;;;;11.88;4.07;;;;;;;24.32;100.00;96876.16;5017993;28;20037;-77
2022/10/29 09:56:59;;;;;;;12.88;3.50;;;;;;;24.57;100.00;96875.97;5025750;28;20033;-77
2022/10/29 09:59:32;;;;;;;16.48;4.55;;;;;;;24.22;100.00;96871.34;5026361;28;20517;-77
2022/10/29 10:01:58;;;;;;;14.30;4.20;;;;;;;23.94;100.00;96866.56;5023834;28;20045;-77
2022/10/29 10:04:33;;;;;;;10.10;4.18;;;;;;;24.49;100.00;96869.06;5026608;28;20041;-77
2022/10/29 10:07:15;;;;;;;11.40;3.90;;;;;;;24.34;100.00;96865.97;5026426;28;20037;-77
2022/10/29 10:09:55;;;;;;;17.00;4.80;;;;;;;24.15;100.00;96860.69;5027603;28;20026;-76
2022/10/29 10:12:46;;;;;;;11.80;4.00;;;;;;;24.32;100.00;96865.41;5026442;28;20467;-76
2022/10/29 10:15:15;;;;;;;14.65;3.70;;;;;;;24.31;100.00;96863.75;5027671;28;20135;-77
2022/10/29 10:18:01;;;;;;;13.73;3.65;;;;;;;24.94;100.00;96855.03;5027543;28;20043;-77
2022/10/29 10:20:37;;;;;;;13.40;4.07;;;;;;;25.15;100.00;96859.03;5011331;28;20036;-76
2022/10/29 10:23:24;;;;;;;15.90;3.90;;;;;;;25.23;100.00;96849.78;5028144;28;20037;-77
2022/10/29 10:25:52;;;;;;;14.85;3.90;;;;;;;25.62;100.00;96848.97;5026575;28;20495;-76
2022/10/29 10:28:20;;;;;;;12.38;4.28;;;;;;;26.33;98.08;96849.47;5027046;28;20077;-77
2022/10/29 10:31:09;;;;;;;15.88;4.90;;;;;;;26.93;90.70;96848.00;5009384;28;20053;-76
2022/10/29 10:33:42;;;;;;;16.58;3.78;;;;;;;26.58;93.71;96844.75;5041870;28;20427;-78
2022/10/29 10:36:09;;;;;;;10.20;3.72;;;;;;;26.78;94.17;96847.75;5029845;28;20033;-77
2022/10/29 10:38:45;;;;;;;10.07;3.90;;;;;;;27.21;93.08;96843.53;5026427;28;20038;-76
2022/10/29 10:41:13;;;;;;;17.55;4.13;;;;;;;26.24;94.06;96845.53;5022206;28;20029;-77
2022/10/29 10:43:46;;;;;;;11.85;3.60;;;;;;;27.18;88.30;96844.03;5028501;28;20111;-77
2022/10/29 10:46:20;;;;;;;12.35;3.83;;;;;;;26.08;94.20;96841.75;5029481;28;20030;-77
2022/10/29 10:49:06;;;;;;;9.65;3.75;;;;;;;26.19;95.30;96839.22;5029511;28;20037;-77
2022/10/29 10:51:35;;;;;;;17.83;3.60;;;;;;;26.82;89.05;96831.88;5026181;28;20117;-77
2022/10/29 10:54:06;;;;;;;9.73;3.38;;;;;;;27.06;87.81;96824.38;5027797;28;20069;-77
2022/10/29 10:56:32;;;;;;;13.27;3.95;;;;;;;26.76;88.84;96828.28;5029397;28;20483;-77
2022/10/29 10:59:10;;;;;;;14.38;5.32;;;;;;;27.04;92.86;96836.25;5012671;28;20566;-77
2022/10/29 11:01:43;;;;;;;10.02;3.50;;;;;;;27.54;95.23;96825.56;5038290;28;20041;-77
2022/10/29 11:04:09;;;;;;;11.15;3.90;;;;;;;27.55;100.00;96830.69;5022409;28;20593;-77
2022/10/29 11:06:40;;;;;;;13.82;4.20;;;;;;;27.57;98.40;96827.75;5030660;28;20041;-77
2022/10/29 11:09:11;;;;;;;11.18;3.65;;;;;;;28.05;94.41;96818.00;5029841;28;20036;-77
2022/10/29 11:11:54;;;;;;;10.27;3.72;;;;;;;27.95;86.99;96822.25;5030816;28;20483;-77
2022/10/29 11:14:36;;;;;;;10.60;3.33;;;;;;;28.63;81.56;96824.44;5026237;28;20057;-77
2022/10/29 11:17:06;;;;;;;11.68;4.70;;;;;;;28.61;85.10;96821.19;5030254;28;20052;-77
2022/10/29 11:19:34;;;;;;;10.32;4.25;;;;;;;28.65;85.92;96822.31;5027419;28;20032;-77
2022/10/29 11:22:31;;;;;;;11.77;4.57;;;;;;;27.93;87.35;96821.69;5030180;28;20029;-77
2022/10/29 11:25:20;;;;;;;13.48;4.22;;;;;;;28.04;87.71;96822.59;5046627;28;20517;-77
2022/10/29 11:28:17;;;;;;;10.45;3.85;;;;;;;27.79;88.81;96820.44;5029834;28;20658;-77
2022/10/29 11:30:50;;;;;;;11.80;4.15;;;;;;;28.36;83.91;96819.88;5030235;28;20033;-77
2022/10/29 11:33:25;;;;;;;10.40;3.70;;;;;;;28.06;87.28;96815.03;5028588;28;20053;-77